首页
METAR-TAF:

METAR-TAF

机场 :

菲利普戈尔德森国际机场

伯利兹, 伯利兹

纬度: 17-32N, 经度: 088-18W, 海拔: 5米

当前天气观测

该预报发布于28分钟前的21:00 UTC
风速9节,风向东转东北
温度 31°C
湿度 66%
气压 1013 hPa
能见度10公里或以上
散云层高于2400英尺

METAR: MZBZ 222100Z 07009KT 9999 SCT024 31/24 A2991 Q1013 NOSIG

时间: 15:28 (21:28 UTC)

预报

该预报发布于6小时和28分钟前的15:00 UTC
预报有效从22日的 18点(UTC)到 23日的 18点(UTC)
风速8节,风向东转东北
能见度10公里或以上
散云层高于2200英尺
几率 30% :
短暂存在
从 22日的 21点(UTC)到 23日的 03点(UTC)
能見度: 5000
多云层高于1500英尺
阵雨
几率 30% :
短暂存在
从 23日的 09点(UTC)到 23日的 15点(UTC)
能見度: 5000
多云层高于1500英尺
阵雨

TAF: MZBZ 221500Z 2218/2318 07008KT 9999 SCT022 PROB30 TEMPO 2221/2303 5000 SHRA BKN015 PROB30 TEMPO 2309/2315 5000 SHRA BKN015

超过4000个机场的气象观测和天气预报(METAR&TAF报告)。

可查询的气象台以黄色和红色小点在地图上表示。

将鼠标移到小点上方,可查看气象台名称。

然后点击查看天气观测和预报。

如需切换地图:点击带黑十字的绿色按钮放大地图;点击带横线的绿色按钮缩小地图;或者点击绿色箭头查看邻近地区的地图。


METAR-TAF: